地図

経路データ

SID SEASON NUMBER BASIN SUBBASIN NAME ISO_TIME NATURE LAT LON WMO_WIND WMO_PRES WMO_AGENCY TRACK_TYPE DIST2LAND LANDFALL IFLAG USA_AGENCY USA_ATCF_ID USA_LAT USA_LON USA_RECORD USA_STATUS USA_WIND USA_PRES USA_SSHS USA_R34_NE USA_R34_SE USA_R34_SW USA_R34_NW USA_R50_NE USA_R50_SE USA_R50_SW USA_R50_NW USA_R64_NE USA_R64_SE USA_R64_SW USA_R64_NW USA_POCI USA_ROCI USA_RMW USA_EYE TOKYO_LAT TOKYO_LON TOKYO_GRADE TOKYO_WIND TOKYO_PRES TOKYO_R50_DIR TOKYO_R50_LONG TOKYO_R50_SHORT TOKYO_R30_DIR TOKYO_R30_LONG TOKYO_R30_SHORT TOKYO_LAND CMA_LAT CMA_LON CMA_CAT CMA_WIND CMA_PRES HKO_LAT HKO_LON HKO_CAT HKO_WIND HKO_PRES NEWDELHI_LAT NEWDELHI_LON NEWDELHI_GRADE NEWDELHI_WIND NEWDELHI_PRES NEWDELHI_CI NEWDELHI_DP NEWDELHI_POCI REUNION_LAT REUNION_LON REUNION_TYPE REUNION_WIND REUNION_PRES REUNION_TNUM REUNION_CI REUNION_RMW REUNION_R34_NE REUNION_R34_SE REUNION_R34_SW REUNION_R34_NW REUNION_R50_NE REUNION_R50_SE REUNION_R50_SW REUNION_R50_NW REUNION_R64_NE REUNION_R64_SE REUNION_R64_SW REUNION_R64_NW BOM_LAT BOM_LON BOM_TYPE BOM_WIND BOM_PRES BOM_TNUM BOM_CI BOM_RMW BOM_R34_NE BOM_R34_SE BOM_R34_SW BOM_R34_NW BOM_R50_NE BOM_R50_SE BOM_R50_SW BOM_R50_NW BOM_R64_NE BOM_R64_SE BOM_R64_SW BOM_R64_NW BOM_ROCI BOM_POCI BOM_EYE BOM_POS_METHOD BOM_PRES_METHOD NADI_LAT NADI_LON NADI_CAT NADI_WIND NADI_PRES WELLINGTON_LAT WELLINGTON_LON WELLINGTON_WIND WELLINGTON_PRES DS824_LAT DS824_LON DS824_STAGE DS824_WIND DS824_PRES TD9636_LAT TD9636_LON TD9636_STAGE TD9636_WIND TD9636_PRES TD9635_LAT TD9635_LON TD9635_WIND TD9635_PRES TD9635_ROCI NEUMANN_LAT NEUMANN_LON NEUMANN_CLASS NEUMANN_WIND NEUMANN_PRES MLC_LAT MLC_LON MLC_CLASS MLC_WIND MLC_PRES USA_GUST BOM_GUST BOM_GUST_PER REUNION_GUST REUNION_GUST_PER USA_SEAHGT USA_SEARAD_NE USA_SEARAD_SE USA_SEARAD_SW USA_SEARAD_NW STORM_SPEED STORM_DIR
1918070S21048 1918 19 SI MM NOT_NAMED 1918-03-11 06:00:00 NR -20.9000 48.1000 reunion main 0 0 _____O________ -1 -20.9000 48.1000 99 9.90000 2 131
1918070S21048 1918 19 SI MM NOT_NAMED 1918-03-11 09:00:00 NR -20.9739 48.1927 main 0 0 _____P________ -1 -20.9739 48.1927 99 2 131
1918070S21048 1918 19 SI MM NOT_NAMED 1918-03-11 12:00:00 NR -21.0538 48.2885 main 0 0 _____P________ -1 -21.0538 48.2885 99 3 133
1918070S21048 1918 19 SI MM NOT_NAMED 1918-03-11 15:00:00 NR -21.1458 48.3903 main 10 10 _____P________ -1 -21.1458 48.3903 99 3 136
1918070S21048 1918 19 SI MM NOT_NAMED 1918-03-11 18:00:00 NR -21.2560 48.5014 main 20 20 _____P________ -1 -21.2560 48.5014 99 3 139
1918070S21048 1918 19 SI MM NOT_NAMED 1918-03-11 21:00:00 NR -21.3905 48.6247 main 31 31 _____P________ -1 -21.3905 48.6247 99 4 141
1918070S21048 1918 19 SI MM NOT_NAMED 1918-03-12 00:00:00 NR -21.5553 48.7635 main 56 56 _____P________ -1 -21.5553 48.7635 99 5 143
1918070S21048 1918 19 SI MM NOT_NAMED 1918-03-12 03:00:00 NR -21.7564 48.9208 main 72 72 _____P________ -1 -21.7564 48.9208 99 5 145
1918070S21048 1918 19 SI MM NOT_NAMED 1918-03-12 06:00:00 NR -22.0000 49.1000 reunion main 95 95 _____O________ -1 -22.0000 49.1000 99 9.90000 6 146
1918070S21048 1918 19 SI MM NOT_NAMED 1918-03-12 09:00:00 NR -22.2893 49.3042 main 126 126 _____P________ -1 -22.2893 49.3042 99 7 147
1918070S21048 1918 19 SI MM NOT_NAMED 1918-03-12 12:00:00 NR -22.6166 49.5355 main 158 158 _____P________ -1 -22.6166 49.5355 99 8 146
1918070S21048 1918 19 SI MM NOT_NAMED 1918-03-12 15:00:00 NR -22.9717 49.7958 main 202 202 _____P________ -1 -22.9717 49.7958 99 9 145
1918070S21048 1918 19 SI MM NOT_NAMED 1918-03-12 18:00:00 NR -23.3442 50.0872 main 239 239 _____P________ -1 -23.3442 50.0872 99 9 143
1918070S21048 1918 19 SI MM NOT_NAMED 1918-03-12 21:00:00 NR -23.7237 50.4115 main 277 277 _____P________ -1 -23.7237 50.4115 99 10 140
1918070S21048 1918 19 SI MM NOT_NAMED 1918-03-13 00:00:00 NR -24.0998 50.7705 main 324 324 _____P________ -1 -24.0998 50.7705 99 10 137
1918070S21048 1918 19 SI MM NOT_NAMED 1918-03-13 03:00:00 NR -24.4620 51.1661 main 376 376 _____P________ -1 -24.4620 51.1661 99 10 133
1918070S21048 1918 19 SI MM NOT_NAMED 1918-03-13 06:00:00 NR -24.8000 51.6000 reunion main 424 424 _____O________ -1 -24.8000 51.6000 99 9.90000 10 127
1918070S21048 1918 19 SI MM NOT_NAMED 1918-03-13 09:00:00 NR -25.0663 52.0343 main 471 471 _____P________ -1 -25.0663 52.0343 99 10 122
1918070S21048 1918 19 SI MM NOT_NAMED 1918-03-13 12:00:00 NR -25.3108 52.5060 main 525 524 _____P________ -1 -25.3108 52.5060 99 10 118
1918070S21048 1918 19 SI MM NOT_NAMED 1918-03-13 15:00:00 NR -25.5385 53.0146 main 524 522 _____P________ -1 -25.5385 53.0146 99 11 115
1918070S21048 1918 19 SI MM NOT_NAMED 1918-03-13 18:00:00 NR -25.7544 53.5596 main 531 524 _____P________ -1 -25.7544 53.5596 99 11 113
1918070S21048 1918 19 SI MM NOT_NAMED 1918-03-13 21:00:00 NR -25.9636 54.1407 main 536 528 _____P________ -1 -25.9636 54.1407 99 12 111
1918070S21048 1918 19 SI MM NOT_NAMED 1918-03-14 00:00:00 NR -26.1709 54.7578 main 542 539 _____P________ -1 -26.1709 54.7578 99 12 110
1918070S21048 1918 19 SI MM NOT_NAMED 1918-03-14 03:00:00 NR -26.3814 55.4109 main 559 558 _____P________ -1 -26.3814 55.4109 99 13 110
1918070S21048 1918 19 SI MM NOT_NAMED 1918-03-14 06:00:00 NR -26.6000 56.1000 reunion main 583 583 _____O________ -1 -26.6000 56.1000 99 9.90000 14 110
1918070S21048 1918 19 SI MM NOT_NAMED 1918-03-14 09:00:00 NR -26.8742 56.8999 main 628 628 _____P________ -1 -26.8742 56.8999 99 16 111
1918070S21048 1918 19 SI MM NOT_NAMED 1918-03-14 12:00:00 NR -27.1556 57.7532 main 685 685 _____P________ -1 -27.1556 57.7532 99 16 110
1918070S21048 1918 19 SI MM NOT_NAMED 1918-03-14 15:00:00 NR -27.4365 58.6357 main 735 735 _____P________ -1 -27.4365 58.6357 99 17 109
1918070S21048 1918 19 SI MM NOT_NAMED 1918-03-14 18:00:00 NR -27.7096 59.5226 main 806 806 _____P________ -1 -27.7096 59.5226 99 16 109
1918070S21048 1918 19 SI MM NOT_NAMED 1918-03-14 21:00:00 NR -27.9683 60.3884 main 880 880 _____P________ -1 -27.9683 60.3884 99 16 108
1918070S21048 1918 19 SI MM NOT_NAMED 1918-03-15 00:00:00 NR -28.2064 61.2074 main 930 930 _____P________ -1 -28.2064 61.2074 99 15 108
1918070S21048 1918 19 SI MM NOT_NAMED 1918-03-15 03:00:00 NR -28.4186 61.9534 main 983 983 _____P________ -1 -28.4186 61.9534 99 13 108
1918070S21048 1918 19 SI MM NOT_NAMED 1918-03-15 06:00:00 NR -28.6000 62.6000 reunion main 1031 1031 _____O________ -1 -28.6000 62.6000 99 9.90000 11 108
1918070S21048 1918 19 SI MM NOT_NAMED 1918-03-15 09:00:00 NR -28.7476 63.1277 main 1065 1065 _____P________ -1 -28.7476 63.1277 99 9 108
1918070S21048 1918 19 SI MM NOT_NAMED 1918-03-15 12:00:00 NR -28.8652 63.5448 main 1105 1105 _____P________ -1 -28.8652 63.5448 99 7 108
1918070S21048 1918 19 SI MM NOT_NAMED 1918-03-15 15:00:00 NR -28.9578 63.8667 main 1136 1136 _____P________ -1 -28.9578 63.8667 99 5 108
1918070S21048 1918 19 SI MM NOT_NAMED 1918-03-15 18:00:00 NR -29.0301 64.1090 main 1147 1147 _____P________ -1 -29.0301 64.1090 99 4 109
1918070S21048 1918 19 SI MM NOT_NAMED 1918-03-15 21:00:00 NR -29.0864 64.2876 main 1168 1168 _____P________ -1 -29.0864 64.2876 99 3 110
1918070S21048 1918 19 SI MM NOT_NAMED 1918-03-16 00:00:00 NR -29.1308 64.4184 main 1174 1174 _____P________ -1 -29.1308 64.4184 99 2 112
1918070S21048 1918 19 SI MM NOT_NAMED 1918-03-16 03:00:00 NR -29.1673 64.5172 main 1188 1188 _____P________ -1 -29.1673 64.5172 99 2 114
1918070S21048 1918 19 SI MM NOT_NAMED 1918-03-16 06:00:00 NR -29.2000 64.6000 reunion main 1194 _____O________ -1 -29.2000 64.6000 99 9.90000 2 114

IBTrACS Databaseについて

本データベースは、米国NOAAが公開する1842年以降の世界の熱帯低気圧のベストトラックデータアーカイブInternational Best Track Archive for Climate Stewardship (IBTrACS)を、ウェブで閲覧しやすい形式に変換したものです。

最終更新日:2021-12-03